sensor_id;sensor_type;location;lat;lon;timestamp;pressure;altitude;pressure_sealevel;temperature;humidity
58373;BME280;44177;43.356;27.672;2024-02-26T00:02:17;97976.25;;;7.19;99.48
58373;BME280;44177;43.356;27.672;2024-02-26T00:04:43;97976.94;;;7.16;98.25
58373;BME280;44177;43.356;27.672;2024-02-26T00:07:09;97985.34;;;7.23;95.99
58373;BME280;44177;43.356;27.672;2024-02-26T00:09:34;97981.66;;;7.27;94.80
58373;BME280;44177;43.356;27.672;2024-02-26T00:12:03;97981.03;;;7.22;93.52
58373;BME280;44177;43.356;27.672;2024-02-26T00:14:29;97959.56;;;7.08;92.28
58373;BME280;44177;43.356;27.672;2024-02-26T00:16:55;97966.41;;;7.14;90.98
58373;BME280;44177;43.356;27.672;2024-02-26T00:19:20;97965.94;;;7.12;90.64
58373;BME280;44177;43.356;27.672;2024-02-26T00:21:46;97971.50;;;7.16;89.70
58373;BME280;44177;43.356;27.672;2024-02-26T00:24:11;97974.56;;;7.14;89.54
58373;BME280;44177;43.356;27.672;2024-02-26T00:26:37;97974.69;;;7.18;89.05
58373;BME280;44177;43.356;27.672;2024-02-26T00:29:02;97970.41;;;7.08;89.23
58373;BME280;44177;43.356;27.672;2024-02-26T00:31:28;97972.97;;;7.13;89.01
58373;BME280;44177;43.356;27.672;2024-02-26T00:33:53;97951.00;;;7.06;88.79
58373;BME280;44177;43.356;27.672;2024-02-26T00:36:19;97963.53;;;7.10;88.50
58373;BME280;44177;43.356;27.672;2024-02-26T00:38:44;97946.84;;;7.00;88.59
58373;BME280;44177;43.356;27.672;2024-02-26T00:41:18;97919.16;;;6.64;89.06
58373;BME280;44177;43.356;27.672;2024-02-26T00:43:44;97931.56;;;6.74;89.46
58373;BME280;44177;43.356;27.672;2024-02-26T00:46:09;97956.66;;;6.92;89.50
58373;BME280;44177;43.356;27.672;2024-02-26T00:48:35;97963.06;;;6.87;89.58
58373;BME280;44177;43.356;27.672;2024-02-26T00:51:00;97938.22;;;6.76;90.13
58373;BME280;44177;43.356;27.672;2024-02-26T00:53:26;97946.03;;;6.78;90.16
58373;BME280;44177;43.356;27.672;2024-02-26T00:55:51;97904.41;;;6.44;90.04
58373;BME280;44177;43.356;27.672;2024-02-26T00:58:17;97962.16;;;6.74;89.96
58373;BME280;44177;43.356;27.672;2024-02-26T01:00:43;97942.75;;;6.63;90.55
58373;BME280;44177;43.356;27.672;2024-02-26T01:03:08;97903.97;;;6.42;90.86
58373;BME280;44177;43.356;27.672;2024-02-26T01:05:35;97920.78;;;6.56;90.88
58373;BME280;44177;43.356;27.672;2024-02-26T01:08:01;97945.75;;;6.71;91.45
58373;BME280;44177;43.356;27.672;2024-02-26T01:10:27;97923.22;;;6.49;92.08
58373;BME280;44177;43.356;27.672;2024-02-26T01:12:52;97943.09;;;6.62;92.59
58373;BME280;44177;43.356;27.672;2024-02-26T01:15:18;97924.81;;;6.50;92.92
58373;BME280;44177;43.356;27.672;2024-02-26T01:17:47;97915.94;;;6.41;93.40
58373;BME280;44177;43.356;27.672;2024-02-26T01:20:12;97938.50;;;6.54;93.63
58373;BME280;44177;43.356;27.672;2024-02-26T01:22:38;97931.81;;;6.51;93.55
58373;BME280;44177;43.356;27.672;2024-02-26T01:25:04;97933.88;;;6.54;93.96
58373;BME280;44177;43.356;27.672;2024-02-26T01:27:29;97906.06;;;6.36;93.85
58373;BME280;44177;43.356;27.672;2024-02-26T01:29:55;97925.78;;;6.45;94.19
58373;BME280;44177;43.356;27.672;2024-02-26T01:32:20;97921.34;;;6.41;95.01
58373;BME280;44177;43.356;27.672;2024-02-26T01:34:46;97908.16;;;6.30;95.72
58373;BME280;44177;43.356;27.672;2024-02-26T01:37:11;97922.94;;;6.42;96.20
58373;BME280;44177;43.356;27.672;2024-02-26T01:39:37;97930.25;;;6.41;96.62
58373;BME280;44177;43.356;27.672;2024-02-26T01:42:02;97932.19;;;6.41;96.79
58373;BME280;44177;43.356;27.672;2024-02-26T01:44:28;97934.59;;;6.34;97.35
58373;BME280;44177;43.356;27.672;2024-02-26T01:46:53;97933.63;;;6.38;97.52
58373;BME280;44177;43.356;27.672;2024-02-26T01:49:19;97922.81;;;6.29;97.37
58373;BME280;44177;43.356;27.672;2024-02-26T01:51:45;97919.28;;;6.38;97.18
58373;BME280;44177;43.356;27.672;2024-02-26T01:54:11;97880.63;;;6.20;97.19
58373;BME280;44177;43.356;27.672;2024-02-26T01:56:38;97911.00;;;6.34;97.19
58373;BME280;44177;43.356;27.672;2024-02-26T01:59:05;97918.78;;;6.36;97.59
58373;BME280;44177;43.356;27.672;2024-02-26T02:01:33;97908.97;;;6.22;98.13
58373;BME280;44177;43.356;27.672;2024-02-26T02:04:00;97918.00;;;6.35;97.97
58373;BME280;44177;43.356;27.672;2024-02-26T02:06:26;97894.56;;;6.00;98.44
58373;BME280;44177;43.356;27.672;2024-02-26T02:08:54;97918.25;;;6.12;98.82
58373;BME280;44177;43.356;27.672;2024-02-26T02:11:20;97923.19;;;6.19;98.40
58373;BME280;44177;43.356;27.672;2024-02-26T02:13:46;97919.88;;;6.05;98.63
58373;BME280;44177;43.356;27.672;2024-02-26T02:16:12;97915.41;;;6.00;98.87
58373;BME280;44177;43.356;27.672;2024-02-26T02:18:38;97926.09;;;6.05;99.04
58373;BME280;44177;43.356;27.672;2024-02-26T02:21:03;97914.63;;;5.99;99.09
58373;BME280;44177;43.356;27.672;2024-02-26T02:23:29;97908.41;;;5.90;99.07
58373;BME280;44177;43.356;27.672;2024-02-26T02:25:56;97904.28;;;5.84;99.14
58373;BME280;44177;43.356;27.672;2024-02-26T02:28:23;97925.47;;;5.91;99.55
58373;BME280;44177;43.356;27.672;2024-02-26T02:30:50;97919.09;;;5.95;99.34
58373;BME280;44177;43.356;27.672;2024-02-26T02:33:16;97906.00;;;5.97;98.80
58373;BME280;44177;43.356;27.672;2024-02-26T02:35:42;97918.13;;;6.09;98.33
58373;BME280;44177;43.356;27.672;2024-02-26T02:38:08;97880.25;;;5.82;98.25
58373;BME280;44177;43.356;27.672;2024-02-26T02:40:33;97902.03;;;5.95;98.72
58373;BME280;44177;43.356;27.672;2024-02-26T02:42:59;97889.16;;;5.83;98.66
58373;BME280;44177;43.356;27.672;2024-02-26T02:45:25;97911.41;;;5.97;98.91
58373;BME280;44177;43.356;27.672;2024-02-26T02:47:51;97911.78;;;5.87;99.15
58373;BME280;44177;43.356;27.672;2024-02-26T02:50:16;97922.13;;;5.85;99.54
58373;BME280;44177;43.356;27.672;2024-02-26T02:52:42;97913.72;;;5.78;99.81
58373;BME280;44177;43.356;27.672;2024-02-26T02:55:07;97917.03;;;5.75;100.00
58373;BME280;44177;43.356;27.672;2024-02-26T02:57:33;97922.44;;;5.75;99.88
58373;BME280;44177;43.356;27.672;2024-02-26T02:59:59;97911.03;;;5.60;99.63
58373;BME280;44177;43.356;27.672;2024-02-26T03:02:24;97925.00;;;5.80;99.87
58373;BME280;44177;43.356;27.672;2024-02-26T03:04:50;97913.09;;;5.63;99.86
58373;BME280;44177;43.356;27.672;2024-02-26T03:07:15;97917.38;;;5.56;100.00
58373;BME280;44177;43.356;27.672;2024-02-26T03:09:41;97922.94;;;5.59;99.86
58373;BME280;44177;43.356;27.672;2024-02-26T03:12:06;97854.41;;;5.20;99.81
58373;BME280;44177;43.356;27.672;2024-02-26T03:14:32;97925.03;;;5.62;100.00
58373;BME280;44177;43.356;27.672;2024-02-26T03:16:57;97924.56;;;5.60;100.00
58373;BME280;44177;43.356;27.672;2024-02-26T03:19:23;97929.31;;;5.72;100.00
58373;BME280;44177;43.356;27.672;2024-02-26T03:21:48;97915.47;;;5.47;100.00
58373;BME280;44177;43.356;27.672;2024-02-26T03:24:14;97921.84;;;5.60;100.00
58373;BME280;44177;43.356;27.672;2024-02-26T03:26:39;97926.13;;;5.70;100.00
58373;BME280;44177;43.356;27.672;2024-02-26T03:29:05;97922.13;;;5.85;100.00
58373;BME280;44177;43.356;27.672;2024-02-26T03:31:31;97927.84;;;5.92;100.00
58373;BME280;44177;43.356;27.672;2024-02-26T03:33:56;97922.44;;;6.01;100.00
58373;BME280;44177;43.356;27.672;2024-02-26T03:36:22;97915.72;;;5.98;100.00
58373;BME280;44177;43.356;27.672;2024-02-26T03:38:50;97914.75;;;6.12;100.00
58373;BME280;44177;43.356;27.672;2024-02-26T03:41:15;97907.53;;;6.25;100.00
58373;BME280;44177;43.356;27.672;2024-02-26T03:43:41;97916.09;;;6.36;100.00
58373;BME280;44177;43.356;27.672;2024-02-26T03:46:09;97914.97;;;6.37;100.00
58373;BME280;44177;43.356;27.672;2024-02-26T03:48:42;97815.81;;;5.67;100.00
58373;BME280;44177;43.356;27.672;2024-02-26T03:51:08;97899.75;;;6.23;100.00
58373;BME280;44177;43.356;27.672;2024-02-26T03:53:35;97918.31;;;6.42;100.00
58373;BME280;44177;43.356;27.672;2024-02-26T03:56:05;97915.63;;;6.34;100.00
58373;BME280;44177;43.356;27.672;2024-02-26T03:58:31;97910.09;;;6.21;100.00
58373;BME280;44177;43.356;27.672;2024-02-26T04:00:56;97904.56;;;6.09;100.00
58373;BME280;44177;43.356;27.672;2024-02-26T04:03:22;97925.53;;;6.29;100.00
58373;BME280;44177;43.356;27.672;2024-02-26T04:05:47;97931.47;;;6.23;99.99
58373;BME280;44177;43.356;27.672;2024-02-26T04:08:13;97926.44;;;5.77;97.64
58373;BME280;44177;43.356;27.672;2024-02-26T04:10:38;97938.22;;;5.64;99.08
58373;BME280;44177;43.356;27.672;2024-02-26T04:13:05;97889.06;;;5.35;99.24
58373;BME280;44177;43.356;27.672;2024-02-26T04:15:31;97894.47;;;5.18;100.00
58373;BME280;44177;43.356;27.672;2024-02-26T04:17:57;97931.56;;;5.44;100.00
58373;BME280;44177;43.356;27.672;2024-02-26T04:20:22;97915.97;;;5.23;100.00
58373;BME280;44177;43.356;27.672;2024-02-26T04:22:48;97915.78;;;5.37;100.00
58373;BME280;44177;43.356;27.672;2024-02-26T04:25:13;97935.69;;;5.50;100.00
58373;BME280;44177;43.356;27.672;2024-02-26T04:27:39;97927.75;;;5.45;100.00
58373;BME280;44177;43.356;27.672;2024-02-26T04:30:06;97943.81;;;5.67;100.00
58373;BME280;44177;43.356;27.672;2024-02-26T04:32:31;97948.59;;;5.71;100.00
58373;BME280;44177;43.356;27.672;2024-02-26T04:34:57;97944.75;;;5.63;100.00
58373;BME280;44177;43.356;27.672;2024-02-26T04:37:22;97928.69;;;5.49;100.00
58373;BME280;44177;43.356;27.672;2024-02-26T04:39:48;97929.47;;;5.58;100.00
58373;BME280;44177;43.356;27.672;2024-02-26T04:42:13;97922.47;;;5.57;100.00
58373;BME280;44177;43.356;27.672;2024-02-26T04:44:39;97932.34;;;5.71;100.00
58373;BME280;44177;43.356;27.672;2024-02-26T04:47:05;97935.19;;;5.65;100.00
58373;BME280;44177;43.356;27.672;2024-02-26T04:49:30;97876.22;;;5.15;100.00
58373;BME280;44177;43.356;27.672;2024-02-26T04:51:55;97935.22;;;5.48;100.00
58373;BME280;44177;43.356;27.672;2024-02-26T04:54:21;97908.97;;;5.31;100.00
58373;BME280;44177;43.356;27.672;2024-02-26T04:56:48;97931.06;;;5.42;100.00
58373;BME280;44177;43.356;27.672;2024-02-26T04:59:13;97920.25;;;5.42;100.00
58373;BME280;44177;43.356;27.672;2024-02-26T05:01:39;97932.03;;;5.46;100.00
58373;BME280;44177;43.356;27.672;2024-02-26T05:04:04;97912.94;;;5.33;100.00
58373;BME280;44177;43.356;27.672;2024-02-26T05:06:30;97926.63;;;5.46;100.00
58373;BME280;44177;43.356;27.672;2024-02-26T05:08:55;97927.75;;;5.45;100.00
58373;BME280;44177;43.356;27.672;2024-02-26T05:11:21;97929.47;;;5.41;100.00
58373;BME280;44177;43.356;27.672;2024-02-26T05:13:48;97880.81;;;5.23;100.00
58373;BME280;44177;43.356;27.672;2024-02-26T05:16:13;97908.03;;;5.44;100.00
58373;BME280;44177;43.356;27.672;2024-02-26T05:18:39;97927.41;;;5.64;100.00
58373;BME280;44177;43.356;27.672;2024-02-26T05:21:04;97926.47;;;5.60;100.00
58373;BME280;44177;43.356;27.672;2024-02-26T05:23:30;97928.53;;;5.72;100.00
58373;BME280;44177;43.356;27.672;2024-02-26T05:25:55;97923.41;;;5.70;100.00
58373;BME280;44177;43.356;27.672;2024-02-26T05:28:21;97894.44;;;5.62;100.00
58373;BME280;44177;43.356;27.672;2024-02-26T05:30:46;97945.19;;;6.00;100.00
58373;BME280;44177;43.356;27.672;2024-02-26T05:33:12;97946.31;;;6.08;100.00
58373;BME280;44177;43.356;27.672;2024-02-26T05:35:37;97935.97;;;6.10;100.00
58373;BME280;44177;43.356;27.672;2024-02-26T05:38:03;97946.91;;;6.31;100.00
58373;BME280;44177;43.356;27.672;2024-02-26T05:40:29;97943.03;;;6.41;100.00
58373;BME280;44177;43.356;27.672;2024-02-26T05:42:55;97948.19;;;6.63;100.00
58373;BME280;44177;43.356;27.672;2024-02-26T05:45:21;97954.28;;;6.90;100.00
58373;BME280;44177;43.356;27.672;2024-02-26T05:47:47;97960.66;;;7.16;100.00
58373;BME280;44177;43.356;27.672;2024-02-26T05:50:13;97934.50;;;7.11;100.00
58373;BME280;44177;43.356;27.672;2024-02-26T05:52:40;97927.72;;;7.26;100.00
58373;BME280;44177;43.356;27.672;2024-02-26T05:55:06;97961.72;;;7.66;100.00
58373;BME280;44177;43.356;27.672;2024-02-26T05:57:32;97933.72;;;7.86;99.42
58373;BME280;44177;43.356;27.672;2024-02-26T05:59:58;97956.66;;;8.10;97.50
58373;BME280;44177;43.356;27.672;2024-02-26T06:02:28;97954.97;;;8.18;96.81
58373;BME280;44177;43.356;27.672;2024-02-26T06:04:54;97959.41;;;8.22;96.49
58373;BME280;44177;43.356;27.672;2024-02-26T06:07:19;97959.28;;;8.19;96.76
58373;BME280;44177;43.356;27.672;2024-02-26T06:09:44;97953.75;;;8.28;96.63
58373;BME280;44177;43.356;27.672;2024-02-26T06:12:10;97980.56;;;8.63;96.25
58373;BME280;44177;43.356;27.672;2024-02-26T06:14:35;97970.81;;;8.74;95.71
58373;BME280;44177;43.356;27.672;2024-02-26T06:17:01;97983.75;;;8.77;95.28
58373;BME280;44177;43.356;27.672;2024-02-26T06:19:26;97986.47;;;8.77;96.25
58373;BME280;44177;43.356;27.672;2024-02-26T06:21:52;97981.13;;;9.06;95.29
58373;BME280;44177;43.356;27.672;2024-02-26T06:24:17;97984.63;;;9.19;95.22
58373;BME280;44177;43.356;27.672;2024-02-26T06:26:43;97984.34;;;9.36;94.36
58373;BME280;44177;43.356;27.672;2024-02-26T06:29:08;97941.81;;;9.44;92.46
58373;BME280;44177;43.356;27.672;2024-02-26T06:31:34;97975.19;;;9.69;90.79
58373;BME280;44177;43.356;27.672;2024-02-26T06:33:59;97942.84;;;9.39;91.87
58373;BME280;44177;43.356;27.672;2024-02-26T06:36:24;97967.47;;;9.71;90.84
58373;BME280;44177;43.356;27.672;2024-02-26T06:38:51;97954.59;;;10.13;89.17
58373;BME280;44177;43.356;27.672;2024-02-26T06:41:19;97967.16;;;11.13;85.86
58373;BME280;44177;43.356;27.672;2024-02-26T06:43:44;97970.31;;;11.31;82.43
58373;BME280;44177;43.356;27.672;2024-02-26T06:46:10;97971.56;;;11.73;80.53
58373;BME280;44177;43.356;27.672;2024-02-26T06:48:35;97968.81;;;12.36;76.90
58373;BME280;44177;43.356;27.672;2024-02-26T06:51:02;97954.63;;;12.26;74.87
58373;BME280;44177;43.356;27.672;2024-02-26T06:53:28;97965.16;;;13.24;73.15
58373;BME280;44177;43.356;27.672;2024-02-26T06:55:53;97956.47;;;13.46;70.64
58373;BME280;44177;43.356;27.672;2024-02-26T06:58:19;97968.25;;;13.50;68.67
58373;BME280;44177;43.356;27.672;2024-02-26T07:00:44;97922.22;;;13.63;68.41
58373;BME280;44177;43.356;27.672;2024-02-26T07:03:11;97960.88;;;13.84;67.50
58373;BME280;44177;43.356;27.672;2024-02-26T07:05:36;97968.13;;;14.03;66.15
58373;BME280;44177;43.356;27.672;2024-02-26T07:08:02;97956.84;;;14.53;64.16
58373;BME280;44177;43.356;27.672;2024-02-26T07:10:27;97966.75;;;13.86;65.84
58373;BME280;44177;43.356;27.672;2024-02-26T07:12:53;97975.66;;;13.76;65.22
58373;BME280;44177;43.356;27.672;2024-02-26T07:15:18;97972.44;;;13.40;67.36
58373;BME280;44177;43.356;27.672;2024-02-26T07:17:43;97960.50;;;13.89;66.79
58373;BME280;44177;43.356;27.672;2024-02-26T07:20:12;97972.28;;;14.28;62.99
58373;BME280;44177;43.356;27.672;2024-02-26T07:22:38;97965.31;;;14.37;63.69
58373;BME280;44177;43.356;27.672;2024-02-26T07:25:04;97928.81;;;14.30;62.79
58373;BME280;44177;43.356;27.672;2024-02-26T07:27:32;97976.03;;;14.50;62.67
58373;BME280;44177;43.356;27.672;2024-02-26T07:29:57;97925.38;;;14.40;62.50
58373;BME280;44177;43.356;27.672;2024-02-26T07:32:23;97957.50;;;15.44;62.01
58373;BME280;44177;43.356;27.672;2024-02-26T07:34:48;97945.97;;;16.01;60.12
58373;BME280;44177;43.356;27.672;2024-02-26T07:37:13;97968.06;;;16.48;57.22
58373;BME280;44177;43.356;27.672;2024-02-26T07:39:39;97959.81;;;16.52;57.75
58373;BME280;44177;43.356;27.672;2024-02-26T07:42:04;97957.06;;;17.06;55.56
58373;BME280;44177;43.356;27.672;2024-02-26T07:44:30;97953.50;;;17.20;55.20
58373;BME280;44177;43.356;27.672;2024-02-26T07:46:55;97955.47;;;17.27;54.25
58373;BME280;44177;43.356;27.672;2024-02-26T07:49:21;97942.34;;;17.56;52.98
58373;BME280;44177;43.356;27.672;2024-02-26T07:51:46;97951.03;;;18.40;51.72
58373;BME280;44177;43.356;27.672;2024-02-26T07:54:12;97949.59;;;18.21;50.18
58373;BME280;44177;43.356;27.672;2024-02-26T07:56:37;97947.16;;;18.83;49.47
58373;BME280;44177;43.356;27.672;2024-02-26T07:59:03;97953.84;;;18.85;47.55
58373;BME280;44177;43.356;27.672;2024-02-26T08:01:28;97947.69;;;18.63;48.42
58373;BME280;44177;43.356;27.672;2024-02-26T08:03:54;97947.56;;;18.81;46.94
58373;BME280;44177;43.356;27.672;2024-02-26T08:06:19;97947.22;;;18.19;47.74
58373;BME280;44177;43.356;27.672;2024-02-26T08:08:45;97914.00;;;17.59;48.87
58373;BME280;44177;43.356;27.672;2024-02-26T08:11:10;97906.31;;;18.03;48.97
58373;BME280;44177;43.356;27.672;2024-02-26T08:13:36;97956.69;;;18.18;48.58
58373;BME280;44177;43.356;27.672;2024-02-26T08:16:01;97938.38;;;18.46;49.12
58373;BME280;44177;43.356;27.672;2024-02-26T08:18:27;97951.34;;;19.02;46.96
58373;BME280;44177;43.356;27.672;2024-02-26T08:20:52;97941.66;;;18.79;46.88
58373;BME280;44177;43.356;27.672;2024-02-26T08:23:18;97949.38;;;18.50;47.36
58373;BME280;44177;43.356;27.672;2024-02-26T08:25:43;97944.38;;;18.83;47.46
58373;BME280;44177;43.356;27.672;2024-02-26T08:28:09;97936.59;;;18.74;48.46
58373;BME280;44177;43.356;27.672;2024-02-26T08:30:36;97942.59;;;19.80;46.34
58373;BME280;44177;43.356;27.672;2024-02-26T08:33:02;97953.69;;;19.80;44.42
58373;BME280;44177;43.356;27.672;2024-02-26T08:35:27;97941.75;;;19.86;44.93
58373;BME280;44177;43.356;27.672;2024-02-26T08:37:52;97939.69;;;20.22;44.07
58373;BME280;44177;43.356;27.672;2024-02-26T08:40:18;97951.31;;;19.44;44.23
58373;BME280;44177;43.356;27.672;2024-02-26T08:42:44;97946.25;;;19.73;45.02
58373;BME280;44177;43.356;27.672;2024-02-26T08:45:11;97944.50;;;20.17;43.79
58373;BME280;44177;43.356;27.672;2024-02-26T08:47:37;97946.41;;;19.93;43.96
58373;BME280;44177;43.356;27.672;2024-02-26T08:50:04;97944.25;;;20.08;42.99
58373;BME280;44177;43.356;27.672;2024-02-26T08:52:30;97910.75;;;19.99;42.94
58373;BME280;44177;43.356;27.672;2024-02-26T08:54:55;97938.41;;;20.81;42.62
58373;BME280;44177;43.356;27.672;2024-02-26T08:57:21;97941.97;;;20.81;41.80
58373;BME280;44177;43.356;27.672;2024-02-26T08:59:46;97941.78;;;20.41;41.83
58373;BME280;44177;43.356;27.672;2024-02-26T09:02:11;97904.56;;;20.42;42.01
58373;BME280;44177;43.356;27.672;2024-02-26T09:04:37;97931.00;;;20.74;41.72
58373;BME280;44177;43.356;27.672;2024-02-26T09:07:02;97898.66;;;20.40;42.21
58373;BME280;44177;43.356;27.672;2024-02-26T09:09:28;97934.97;;;20.97;42.54
58373;BME280;44177;43.356;27.672;2024-02-26T09:11:53;97936.41;;;20.81;41.99
58373;BME280;44177;43.356;27.672;2024-02-26T09:14:20;97916.72;;;19.94;43.25
58373;BME280;44177;43.356;27.672;2024-02-26T09:16:46;97917.72;;;19.07;45.30
58373;BME280;44177;43.356;27.672;2024-02-26T09:19:14;97921.94;;;19.19;45.52
58373;BME280;44177;43.356;27.672;2024-02-26T09:21:45;97898.00;;;19.43;44.66
58373;BME280;44177;43.356;27.672;2024-02-26T09:24:12;97936.53;;;19.57;44.15
58373;BME280;44177;43.356;27.672;2024-02-26T09:26:38;97944.75;;;19.65;45.42
58373;BME280;44177;43.356;27.672;2024-02-26T09:29:03;97938.38;;;19.37;45.39
58373;BME280;44177;43.356;27.672;2024-02-26T09:31:30;97927.66;;;19.39;46.05
58373;BME280;44177;43.356;27.672;2024-02-26T09:33:55;97927.09;;;19.20;47.82
58373;BME280;44177;43.356;27.672;2024-02-26T09:36:21;97937.44;;;19.47;46.99
58373;BME280;44177;43.356;27.672;2024-02-26T09:38:47;97942.34;;;19.36;48.22
58373;BME280;44177;43.356;27.672;2024-02-26T09:41:16;97921.91;;;19.22;48.44
58373;BME280;44177;43.356;27.672;2024-02-26T09:43:43;97892.16;;;19.34;48.76
58373;BME280;44177;43.356;27.672;2024-02-26T09:46:10;97895.66;;;19.38;47.13
58373;BME280;44177;43.356;27.672;2024-02-26T09:48:37;97942.91;;;19.16;47.75
58373;BME280;44177;43.356;27.672;2024-02-26T09:51:03;97888.38;;;19.20;47.36
58373;BME280;44177;43.356;27.672;2024-02-26T09:53:30;97940.16;;;19.85;46.24
58373;BME280;44177;43.356;27.672;2024-02-26T09:56:00;97933.44;;;19.86;45.24
58373;BME280;44177;43.356;27.672;2024-02-26T09:58:28;97927.56;;;19.84;45.67
58373;BME280;44177;43.356;27.672;2024-02-26T10:01:00;97925.00;;;20.25;44.08
58373;BME280;44177;43.356;27.672;2024-02-26T10:03:43;97920.03;;;20.40;43.09
58373;BME280;44177;43.356;27.672;2024-02-26T10:06:10;97939.25;;;20.50;44.23
58373;BME280;44177;43.356;27.672;2024-02-26T10:08:36;97918.19;;;20.57;43.31
58373;BME280;44177;43.356;27.672;2024-02-26T10:11:03;97935.44;;;19.86;45.71
58373;BME280;44177;43.356;27.672;2024-02-26T10:13:30;97908.66;;;19.76;43.29
58373;BME280;44177;43.356;27.672;2024-02-26T10:15:55;97925.75;;;20.01;43.26
58373;BME280;44177;43.356;27.672;2024-02-26T10:18:22;97908.31;;;20.56;42.47
58373;BME280;44177;43.356;27.672;2024-02-26T10:21:01;97922.88;;;20.36;43.04
58373;BME280;44177;43.356;27.672;2024-02-26T10:23:27;97923.66;;;20.60;42.55
58373;BME280;44177;43.356;27.672;2024-02-26T10:25:54;97887.56;;;20.40;41.96
58373;BME280;44177;43.356;27.672;2024-02-26T10:28:20;97924.38;;;20.41;42.16
58373;BME280;44177;43.356;27.672;2024-02-26T10:30:46;97919.81;;;19.34;43.90
58373;BME280;44177;43.356;27.672;2024-02-26T10:33:12;97915.34;;;19.78;44.51
58373;BME280;44177;43.356;27.672;2024-02-26T10:35:39;97915.97;;;20.20;42.69
58373;BME280;44177;43.356;27.672;2024-02-26T10:38:07;97909.34;;;19.87;43.78
58373;BME280;44177;43.356;27.672;2024-02-26T10:40:32;97903.81;;;20.14;43.24
58373;BME280;44177;43.356;27.672;2024-02-26T10:42:58;97910.78;;;20.50;43.35
58373;BME280;44177;43.356;27.672;2024-02-26T10:45:24;97906.00;;;20.50;42.60
58373;BME280;44177;43.356;27.672;2024-02-26T10:47:50;97898.97;;;20.46;42.84
58373;BME280;44177;43.356;27.672;2024-02-26T10:50:16;97892.66;;;20.93;42.15
58373;BME280;44177;43.356;27.672;2024-02-26T10:52:42;97906.28;;;20.83;40.79
58373;BME280;44177;43.356;27.672;2024-02-26T10:55:08;97906.66;;;20.86;40.37
58373;BME280;44177;43.356;27.672;2024-02-26T10:57:40;97893.22;;;21.04;40.11
58373;BME280;44177;43.356;27.672;2024-02-26T11:00:08;97878.81;;;21.53;40.55
58373;BME280;44177;43.356;27.672;2024-02-26T11:02:36;97888.28;;;21.16;40.77
58373;BME280;44177;43.356;27.672;2024-02-26T11:05:02;97887.72;;;21.44;40.00
58373;BME280;44177;43.356;27.672;2024-02-26T11:07:30;97876.59;;;21.04;39.50
58373;BME280;44177;43.356;27.672;2024-02-26T11:09:59;97875.03;;;21.43;39.87
58373;BME280;44177;43.356;27.672;2024-02-26T11:12:25;97873.44;;;21.83;39.21
58373;BME280;44177;43.356;27.672;2024-02-26T11:14:54;97870.47;;;22.10;39.96
58373;BME280;44177;43.356;27.672;2024-02-26T11:17:22;97873.16;;;21.97;36.83
58373;BME280;44177;43.356;27.672;2024-02-26T11:19:50;97860.41;;;21.23;39.34
58373;BME280;44177;43.356;27.672;2024-02-26T11:22:16;97868.50;;;21.54;38.89
58373;BME280;44177;43.356;27.672;2024-02-26T11:24:43;97856.44;;;22.17;38.02
58373;BME280;44177;43.356;27.672;2024-02-26T11:27:10;97835.81;;;21.82;36.95
58373;BME280;44177;43.356;27.672;2024-02-26T11:29:50;97824.84;;;21.18;38.50
58373;BME280;44177;43.356;27.672;2024-02-26T11:32:17;97864.56;;;22.08;37.33
58373;BME280;44177;43.356;27.672;2024-02-26T11:34:44;97852.56;;;23.23;36.96
58373;BME280;44177;43.356;27.672;2024-02-26T11:37:17;97785.00;;;22.93;35.08
58373;BME280;44177;43.356;27.672;2024-02-26T11:39:43;97870.66;;;22.69;35.23
58373;BME280;44177;43.356;27.672;2024-02-26T11:42:14;97850.19;;;21.56;35.45
58373;BME280;44177;43.356;27.672;2024-02-26T11:44:39;97842.53;;;21.44;34.65
58373;BME280;44177;43.356;27.672;2024-02-26T11:47:14;97859.97;;;22.18;33.75
58373;BME280;44177;43.356;27.672;2024-02-26T11:49:43;97829.66;;;21.90;33.56
58373;BME280;44177;43.356;27.672;2024-02-26T11:52:09;97849.22;;;22.03;33.64
58373;BME280;44177;43.356;27.672;2024-02-26T11:54:47;97844.00;;;22.22;33.29
58373;BME280;44177;43.356;27.672;2024-02-26T11:57:38;97844.16;;;22.81;32.37
58373;BME280;44177;43.356;27.672;2024-02-26T12:02:45;97839.44;;;22.78;31.45
58373;BME280;44177;43.356;27.672;2024-02-26T12:05:19;97850.00;;;22.70;31.80
58373;BME280;44177;43.356;27.672;2024-02-26T12:07:50;97845.72;;;21.99;32.37
58373;BME280;44177;43.356;27.672;2024-02-26T12:10:32;97864.75;;;21.64;33.09
58373;BME280;44177;43.356;27.672;2024-02-26T12:13:10;97864.47;;;21.95;32.27
58373;BME280;44177;43.356;27.672;2024-02-26T12:15:40;97818.94;;;21.36;32.47
58373;BME280;44177;43.356;27.672;2024-02-26T12:18:07;97861.59;;;21.42;32.59
58373;BME280;44177;43.356;27.672;2024-02-26T12:20:33;97859.50;;;21.29;32.90
58373;BME280;44177;43.356;27.672;2024-02-26T12:23:01;97847.75;;;21.22;33.42
58373;BME280;44177;43.356;27.672;2024-02-26T12:25:28;97847.41;;;21.76;32.66
58373;BME280;44177;43.356;27.672;2024-02-26T12:27:54;97844.47;;;21.84;31.59
58373;BME280;44177;43.356;27.672;2024-02-26T12:30:21;97830.03;;;21.92;32.22
58373;BME280;44177;43.356;27.672;2024-02-26T12:32:51;97844.06;;;21.85;31.92
58373;BME280;44177;43.356;27.672;2024-02-26T12:35:17;97809.72;;;22.12;32.14
58373;BME280;44177;43.356;27.672;2024-02-26T12:37:43;97841.31;;;22.35;32.81
58373;BME280;44177;43.356;27.672;2024-02-26T12:40:10;97847.59;;;21.29;33.70
58373;BME280;44177;43.356;27.672;2024-02-26T12:42:36;97848.38;;;20.89;35.27
58373;BME280;44177;43.356;27.672;2024-02-26T12:45:07;97852.66;;;20.70;34.68
58373;BME280;44177;43.356;27.672;2024-02-26T12:47:44;97796.31;;;20.77;33.49
58373;BME280;44177;43.356;27.672;2024-02-26T12:50:15;97852.28;;;20.92;33.98
58373;BME280;44177;43.356;27.672;2024-02-26T12:52:44;97812.41;;;20.62;34.16